Terminal Aerodrome Forecast
Issued by NWS

Home | Current Version | Previous Version | Text Only | Print | Product List | Glossary On
Versions: 1 2 3 4 5 6 7 8 9 10 11 12 13
000
FTUS42 KMLB 302300 RRA
TAFFPR
TAF
KFPR 302354Z 3100/3124 15005KT P6SM VCTS FEW040CB OVC080
     FM310100 VRB03KT P6SM SCT060 SCT100 SCT250
     FM311400 16006KT P6SM SCT025
     FM311700 12009KT P6SM VCTS BKN035CB
     FM312200 14007KT P6SM SCT040 BKN120=

USA.gov is the U.S. government's official web portal to all federal, state and local government web resources and services.